sensor_id;sensor_type;location;lat;lon;timestamp;P1;durP1;ratioP1;P2;durP2;ratioP2
68700;SDS011;55682;51.114;5.882;2023-07-31T00:01:29;3.70;;;3.39;;
68700;SDS011;55682;51.114;5.882;2023-07-31T00:03:55;3.36;;;3.15;;
68700;SDS011;55682;51.114;5.882;2023-07-31T00:06:20;3.67;;;3.39;;
68700;SDS011;55682;51.114;5.882;2023-07-31T00:08:46;3.40;;;3.10;;
68700;SDS011;55682;51.114;5.882;2023-07-31T00:11:11;3.40;;;3.10;;
68700;SDS011;55682;51.114;5.882;2023-07-31T00:13:37;3.23;;;2.98;;
68700;SDS011;55682;51.114;5.882;2023-07-31T00:16:03;3.36;;;3.15;;
68700;SDS011;55682;51.114;5.882;2023-07-31T00:18:28;3.05;;;2.86;;
68700;SDS011;55682;51.114;5.882;2023-07-31T00:20:54;3.06;;;2.87;;
68700;SDS011;55682;51.114;5.882;2023-07-31T00:23:20;2.85;;;2.75;;
68700;SDS011;55682;51.114;5.882;2023-07-31T00:25:45;2.93;;;2.81;;
68700;SDS011;55682;51.114;5.882;2023-07-31T00:28:11;3.71;;;3.50;;
68700;SDS011;55682;51.114;5.882;2023-07-31T00:30:37;3.70;;;3.48;;
68700;SDS011;55682;51.114;5.882;2023-07-31T00:33:03;3.12;;;2.97;;
68700;SDS011;55682;51.114;5.882;2023-07-31T00:35:29;3.19;;;3.04;;
68700;SDS011;55682;51.114;5.882;2023-07-31T00:37:55;2.91;;;2.76;;
68700;SDS011;55682;51.114;5.882;2023-07-31T00:40:23;3.19;;;3.00;;
68700;SDS011;55682;51.114;5.882;2023-07-31T00:42:48;3.42;;;3.20;;
68700;SDS011;55682;51.114;5.882;2023-07-31T00:45:14;3.29;;;3.06;;
68700;SDS011;55682;51.114;5.882;2023-07-31T00:47:40;3.26;;;3.08;;
68700;SDS011;55682;51.114;5.882;2023-07-31T00:50:06;3.15;;;2.94;;
68700;SDS011;55682;51.114;5.882;2023-07-31T00:52:32;3.34;;;3.11;;
68700;SDS011;55682;51.114;5.882;2023-07-31T00:54:58;3.07;;;2.90;;
68700;SDS011;55682;51.114;5.882;2023-07-31T00:57:25;3.51;;;3.31;;
68700;SDS011;55682;51.114;5.882;2023-07-31T00:59:51;3.29;;;3.03;;
68700;SDS011;55682;51.114;5.882;2023-07-31T01:02:16;3.38;;;3.09;;
68700;SDS011;55682;51.114;5.882;2023-07-31T01:04:43;3.54;;;3.20;;
68700;SDS011;55682;51.114;5.882;2023-07-31T01:07:12;3.58;;;3.25;;
68700;SDS011;55682;51.114;5.882;2023-07-31T01:10:01;3.58;;;3.30;;
68700;SDS011;55682;51.114;5.882;2023-07-31T01:12:33;3.58;;;3.37;;
68700;SDS011;55682;51.114;5.882;2023-07-31T01:15:04;3.35;;;3.18;;
68700;SDS011;55682;51.114;5.882;2023-07-31T01:17:37;3.33;;;3.10;;
68700;SDS011;55682;51.114;5.882;2023-07-31T01:20:05;3.34;;;3.11;;
68700;SDS011;55682;51.114;5.882;2023-07-31T01:28:13;3.52;;;3.31;;
68700;SDS011;55682;51.114;5.882;2023-07-31T01:30:46;3.73;;;3.49;;
68700;SDS011;55682;51.114;5.882;2023-07-31T01:33:14;3.53;;;3.27;;
68700;SDS011;55682;51.114;5.882;2023-07-31T01:35:42;3.64;;;3.37;;
68700;SDS011;55682;51.114;5.882;2023-07-31T01:38:10;3.60;;;3.32;;
68700;SDS011;55682;51.114;5.882;2023-07-31T01:40:37;3.70;;;3.44;;
68700;SDS011;55682;51.114;5.882;2023-07-31T01:43:02;3.23;;;3.01;;
68700;SDS011;55682;51.114;5.882;2023-07-31T01:45:28;3.49;;;3.25;;
68700;SDS011;55682;51.114;5.882;2023-07-31T01:47:54;3.14;;;2.98;;
68700;SDS011;55682;51.114;5.882;2023-07-31T01:50:19;3.52;;;3.34;;
68700;SDS011;55682;51.114;5.882;2023-07-31T01:52:45;3.53;;;3.41;;
68700;SDS011;55682;51.114;5.882;2023-07-31T01:55:11;3.50;;;3.39;;
68700;SDS011;55682;51.114;5.882;2023-07-31T01:57:36;3.41;;;3.24;;
68700;SDS011;55682;51.114;5.882;2023-07-31T02:00:03;3.34;;;3.17;;
68700;SDS011;55682;51.114;5.882;2023-07-31T02:02:37;3.26;;;3.13;;
68700;SDS011;55682;51.114;5.882;2023-07-31T02:05:02;3.38;;;3.27;;
68700;SDS011;55682;51.114;5.882;2023-07-31T02:07:29;3.48;;;3.34;;
68700;SDS011;55682;51.114;5.882;2023-07-31T02:09:54;3.79;;;3.56;;
68700;SDS011;55682;51.114;5.882;2023-07-31T02:12:20;3.61;;;3.36;;
68700;SDS011;55682;51.114;5.882;2023-07-31T02:14:46;3.67;;;3.45;;
68700;SDS011;55682;51.114;5.882;2023-07-31T02:17:11;3.46;;;3.32;;
68700;SDS011;55682;51.114;5.882;2023-07-31T02:19:37;3.32;;;3.17;;
68700;SDS011;55682;51.114;5.882;2023-07-31T02:22:02;3.69;;;3.53;;
68700;SDS011;55682;51.114;5.882;2023-07-31T02:24:28;3.71;;;3.58;;
68700;SDS011;55682;51.114;5.882;2023-07-31T02:26:54;3.49;;;3.34;;
68700;SDS011;55682;51.114;5.882;2023-07-31T02:29:19;3.05;;;2.92;;
68700;SDS011;55682;51.114;5.882;2023-07-31T02:31:45;3.12;;;3.03;;
68700;SDS011;55682;51.114;5.882;2023-07-31T02:34:11;3.51;;;3.39;;
68700;SDS011;55682;51.114;5.882;2023-07-31T02:36:36;3.63;;;3.50;;
68700;SDS011;55682;51.114;5.882;2023-07-31T02:39:02;3.33;;;3.23;;
68700;SDS011;55682;51.114;5.882;2023-07-31T02:41:27;3.46;;;3.30;;
68700;SDS011;55682;51.114;5.882;2023-07-31T02:43:53;3.95;;;3.82;;
68700;SDS011;55682;51.114;5.882;2023-07-31T02:46:19;3.55;;;3.41;;
68700;SDS011;55682;51.114;5.882;2023-07-31T02:48:45;3.51;;;3.40;;
68700;SDS011;55682;51.114;5.882;2023-07-31T02:51:12;3.38;;;3.27;;
68700;SDS011;55682;51.114;5.882;2023-07-31T02:53:38;3.42;;;3.31;;
68700;SDS011;55682;51.114;5.882;2023-07-31T02:56:03;3.52;;;3.44;;
68700;SDS011;55682;51.114;5.882;2023-07-31T02:58:29;3.56;;;3.47;;
68700;SDS011;55682;51.114;5.882;2023-07-31T03:00:55;3.59;;;3.51;;
68700;SDS011;55682;51.114;5.882;2023-07-31T03:03:20;3.32;;;3.25;;
68700;SDS011;55682;51.114;5.882;2023-07-31T03:05:46;3.53;;;3.48;;
68700;SDS011;55682;51.114;5.882;2023-07-31T03:08:12;3.54;;;3.49;;
68700;SDS011;55682;51.114;5.882;2023-07-31T03:10:37;3.33;;;3.29;;
68700;SDS011;55682;51.114;5.882;2023-07-31T03:13:04;3.46;;;3.36;;
68700;SDS011;55682;51.114;5.882;2023-07-31T03:15:29;3.29;;;3.19;;
68700;SDS011;55682;51.114;5.882;2023-07-31T03:17:55;3.55;;;3.42;;
68700;SDS011;55682;51.114;5.882;2023-07-31T03:20:20;3.72;;;3.62;;
68700;SDS011;55682;51.114;5.882;2023-07-31T03:22:46;3.36;;;3.31;;
68700;SDS011;55682;51.114;5.882;2023-07-31T03:25:12;3.85;;;3.80;;
68700;SDS011;55682;51.114;5.882;2023-07-31T03:27:37;3.59;;;3.55;;
68700;SDS011;55682;51.114;5.882;2023-07-31T03:30:03;3.51;;;3.41;;
68700;SDS011;55682;51.114;5.882;2023-07-31T03:32:29;3.94;;;3.82;;
68700;SDS011;55682;51.114;5.882;2023-07-31T03:34:55;3.59;;;3.52;;
68700;SDS011;55682;51.114;5.882;2023-07-31T03:37:20;3.15;;;3.11;;
68700;SDS011;55682;51.114;5.882;2023-07-31T03:39:46;3.74;;;3.69;;
68700;SDS011;55682;51.114;5.882;2023-07-31T03:42:12;3.75;;;3.69;;
68700;SDS011;55682;51.114;5.882;2023-07-31T03:44:37;3.67;;;3.57;;
68700;SDS011;55682;51.114;5.882;2023-07-31T03:47:04;3.58;;;3.50;;
68700;SDS011;55682;51.114;5.882;2023-07-31T03:49:30;3.76;;;3.69;;
68700;SDS011;55682;51.114;5.882;2023-07-31T03:51:56;3.35;;;3.28;;
68700;SDS011;55682;51.114;5.882;2023-07-31T03:54:21;3.81;;;3.72;;
68700;SDS011;55682;51.114;5.882;2023-07-31T03:56:47;3.27;;;3.21;;
68700;SDS011;55682;51.114;5.882;2023-07-31T03:59:12;4.03;;;3.94;;
68700;SDS011;55682;51.114;5.882;2023-07-31T04:01:38;4.25;;;4.21;;
68700;SDS011;55682;51.114;5.882;2023-07-31T04:04:04;3.70;;;3.68;;
68700;SDS011;55682;51.114;5.882;2023-07-31T04:06:30;3.21;;;3.17;;
68700;SDS011;55682;51.114;5.882;2023-07-31T04:08:55;3.39;;;3.34;;
68700;SDS011;55682;51.114;5.882;2023-07-31T04:11:21;3.56;;;3.51;;
68700;SDS011;55682;51.114;5.882;2023-07-31T04:13:47;3.59;;;3.55;;
68700;SDS011;55682;51.114;5.882;2023-07-31T04:16:13;3.78;;;3.71;;
68700;SDS011;55682;51.114;5.882;2023-07-31T04:18:38;3.81;;;3.78;;
68700;SDS011;55682;51.114;5.882;2023-07-31T04:21:04;3.79;;;3.76;;
68700;SDS011;55682;51.114;5.882;2023-07-31T04:23:30;4.06;;;4.04;;
68700;SDS011;55682;51.114;5.882;2023-07-31T04:25:55;3.57;;;3.55;;
68700;SDS011;55682;51.114;5.882;2023-07-31T04:28:21;3.31;;;3.29;;
68700;SDS011;55682;51.114;5.882;2023-07-31T04:30:47;3.55;;;3.54;;
68700;SDS011;55682;51.114;5.882;2023-07-31T04:33:13;3.23;;;3.22;;
68700;SDS011;55682;51.114;5.882;2023-07-31T04:35:39;3.36;;;3.36;;
68700;SDS011;55682;51.114;5.882;2023-07-31T04:38:04;3.74;;;3.74;;
68700;SDS011;55682;51.114;5.882;2023-07-31T04:40:30;3.65;;;3.64;;
68700;SDS011;55682;51.114;5.882;2023-07-31T04:42:55;3.27;;;3.26;;
68700;SDS011;55682;51.114;5.882;2023-07-31T04:45:21;3.48;;;3.47;;
68700;SDS011;55682;51.114;5.882;2023-07-31T04:47:47;3.63;;;3.63;;
68700;SDS011;55682;51.114;5.882;2023-07-31T04:50:12;3.57;;;3.56;;
68700;SDS011;55682;51.114;5.882;2023-07-31T04:52:38;3.48;;;3.45;;
68700;SDS011;55682;51.114;5.882;2023-07-31T04:55:04;3.47;;;3.45;;
68700;SDS011;55682;51.114;5.882;2023-07-31T04:57:30;3.42;;;3.37;;
68700;SDS011;55682;51.114;5.882;2023-07-31T04:59:55;3.46;;;3.41;;
68700;SDS011;55682;51.114;5.882;2023-07-31T05:02:21;3.61;;;3.60;;
68700;SDS011;55682;51.114;5.882;2023-07-31T05:04:46;3.51;;;3.48;;
68700;SDS011;55682;51.114;5.882;2023-07-31T05:07:12;3.24;;;3.20;;
68700;SDS011;55682;51.114;5.882;2023-07-31T05:09:38;3.12;;;3.10;;
68700;SDS011;55682;51.114;5.882;2023-07-31T05:12:04;2.99;;;2.99;;
68700;SDS011;55682;51.114;5.882;2023-07-31T05:14:31;3.13;;;3.13;;
68700;SDS011;55682;51.114;5.882;2023-07-31T05:16:56;3.20;;;3.20;;
68700;SDS011;55682;51.114;5.882;2023-07-31T05:19:22;3.24;;;3.24;;
68700;SDS011;55682;51.114;5.882;2023-07-31T05:21:48;3.25;;;3.25;;
68700;SDS011;55682;51.114;5.882;2023-07-31T05:24:13;3.25;;;3.23;;
68700;SDS011;55682;51.114;5.882;2023-07-31T05:26:39;2.83;;;2.83;;
68700;SDS011;55682;51.114;5.882;2023-07-31T05:29:05;3.34;;;3.33;;
68700;SDS011;55682;51.114;5.882;2023-07-31T05:31:30;2.97;;;2.95;;
68700;SDS011;55682;51.114;5.882;2023-07-31T05:33:57;3.28;;;3.25;;
68700;SDS011;55682;51.114;5.882;2023-07-31T05:36:23;2.91;;;2.87;;
68700;SDS011;55682;51.114;5.882;2023-07-31T05:38:49;3.54;;;3.51;;
68700;SDS011;55682;51.114;5.882;2023-07-31T05:41:15;3.15;;;3.13;;
68700;SDS011;55682;51.114;5.882;2023-07-31T05:43:41;3.13;;;3.09;;
68700;SDS011;55682;51.114;5.882;2023-07-31T05:46:08;3.20;;;3.15;;
68700;SDS011;55682;51.114;5.882;2023-07-31T05:48:34;3.09;;;3.06;;
68700;SDS011;55682;51.114;5.882;2023-07-31T05:51:00;2.95;;;2.92;;
68700;SDS011;55682;51.114;5.882;2023-07-31T05:53:26;3.57;;;3.53;;
68700;SDS011;55682;51.114;5.882;2023-07-31T05:55:51;3.06;;;3.05;;
68700;SDS011;55682;51.114;5.882;2023-07-31T05:58:17;3.14;;;3.14;;
68700;SDS011;55682;51.114;5.882;2023-07-31T06:00:42;3.03;;;3.03;;
68700;SDS011;55682;51.114;5.882;2023-07-31T06:03:08;2.79;;;2.78;;
68700;SDS011;55682;51.114;5.882;2023-07-31T06:05:34;2.79;;;2.78;;
68700;SDS011;55682;51.114;5.882;2023-07-31T06:08:00;3.29;;;3.29;;
68700;SDS011;55682;51.114;5.882;2023-07-31T06:10:26;2.93;;;2.93;;
68700;SDS011;55682;51.114;5.882;2023-07-31T06:12:52;3.04;;;3.02;;
68700;SDS011;55682;51.114;5.882;2023-07-31T06:15:18;2.98;;;2.95;;
68700;SDS011;55682;51.114;5.882;2023-07-31T06:17:45;2.90;;;2.89;;
68700;SDS011;55682;51.114;5.882;2023-07-31T06:20:10;3.00;;;3.00;;
68700;SDS011;55682;51.114;5.882;2023-07-31T06:22:36;2.85;;;2.85;;
68700;SDS011;55682;51.114;5.882;2023-07-31T06:25:02;3.04;;;3.04;;
68700;SDS011;55682;51.114;5.882;2023-07-31T06:27:28;2.74;;;2.74;;
68700;SDS011;55682;51.114;5.882;2023-07-31T06:29:53;3.05;;;3.04;;
68700;SDS011;55682;51.114;5.882;2023-07-31T06:32:19;3.02;;;3.01;;
68700;SDS011;55682;51.114;5.882;2023-07-31T06:34:45;2.69;;;2.68;;
68700;SDS011;55682;51.114;5.882;2023-07-31T06:37:11;3.07;;;3.06;;
68700;SDS011;55682;51.114;5.882;2023-07-31T06:39:36;3.16;;;3.14;;
68700;SDS011;55682;51.114;5.882;2023-07-31T06:42:02;2.83;;;2.82;;
68700;SDS011;55682;51.114;5.882;2023-07-31T06:44:29;2.72;;;2.71;;
68700;SDS011;55682;51.114;5.882;2023-07-31T06:46:55;3.08;;;3.07;;
68700;SDS011;55682;51.114;5.882;2023-07-31T06:49:20;2.86;;;2.85;;
68700;SDS011;55682;51.114;5.882;2023-07-31T06:51:46;2.98;;;2.98;;
68700;SDS011;55682;51.114;5.882;2023-07-31T06:54:12;2.75;;;2.74;;
68700;SDS011;55682;51.114;5.882;2023-07-31T06:56:37;2.58;;;2.56;;
68700;SDS011;55682;51.114;5.882;2023-07-31T06:59:03;2.95;;;2.94;;
68700;SDS011;55682;51.114;5.882;2023-07-31T07:01:29;2.85;;;2.85;;
68700;SDS011;55682;51.114;5.882;2023-07-31T07:03:54;3.01;;;3.01;;
68700;SDS011;55682;51.114;5.882;2023-07-31T07:06:21;2.67;;;2.66;;
68700;SDS011;55682;51.114;5.882;2023-07-31T07:08:48;2.60;;;2.59;;
68700;SDS011;55682;51.114;5.882;2023-07-31T07:11:14;2.43;;;2.43;;
68700;SDS011;55682;51.114;5.882;2023-07-31T07:13:39;2.42;;;2.42;;
68700;SDS011;55682;51.114;5.882;2023-07-31T07:16:05;2.75;;;2.75;;
68700;SDS011;55682;51.114;5.882;2023-07-31T07:18:31;2.50;;;2.50;;
68700;SDS011;55682;51.114;5.882;2023-07-31T07:20:56;2.68;;;2.68;;
68700;SDS011;55682;51.114;5.882;2023-07-31T07:23:23;2.48;;;2.48;;
68700;SDS011;55682;51.114;5.882;2023-07-31T07:25:49;2.53;;;2.53;;
68700;SDS011;55682;51.114;5.882;2023-07-31T07:28:14;2.47;;;2.47;;
68700;SDS011;55682;51.114;5.882;2023-07-31T07:30:40;2.35;;;2.35;;
68700;SDS011;55682;51.114;5.882;2023-07-31T07:33:06;2.61;;;2.61;;
68700;SDS011;55682;51.114;5.882;2023-07-31T07:35:35;2.88;;;2.88;;
68700;SDS011;55682;51.114;5.882;2023-07-31T07:38:04;2.45;;;2.45;;
68700;SDS011;55682;51.114;5.882;2023-07-31T07:40:29;2.51;;;2.51;;
68700;SDS011;55682;51.114;5.882;2023-07-31T07:42:55;2.61;;;2.61;;
68700;SDS011;55682;51.114;5.882;2023-07-31T07:45:21;2.37;;;2.37;;
68700;SDS011;55682;51.114;5.882;2023-07-31T07:47:46;2.68;;;2.68;;
68700;SDS011;55682;51.114;5.882;2023-07-31T07:50:12;2.69;;;2.69;;
68700;SDS011;55682;51.114;5.882;2023-07-31T07:52:38;2.67;;;2.67;;
68700;SDS011;55682;51.114;5.882;2023-07-31T07:55:03;2.77;;;2.77;;
68700;SDS011;55682;51.114;5.882;2023-07-31T07:57:29;2.62;;;2.62;;
68700;SDS011;55682;51.114;5.882;2023-07-31T07:59:55;2.59;;;2.58;;
68700;SDS011;55682;51.114;5.882;2023-07-31T08:02:21;2.68;;;2.67;;
68700;SDS011;55682;51.114;5.882;2023-07-31T08:04:47;2.87;;;2.87;;
68700;SDS011;55682;51.114;5.882;2023-07-31T08:07:13;2.72;;;2.72;;
68700;SDS011;55682;51.114;5.882;2023-07-31T08:09:38;2.68;;;2.67;;
68700;SDS011;55682;51.114;5.882;2023-07-31T08:12:05;2.56;;;2.55;;
68700;SDS011;55682;51.114;5.882;2023-07-31T08:14:31;2.49;;;2.49;;
68700;SDS011;55682;51.114;5.882;2023-07-31T08:16:57;2.91;;;2.91;;
68700;SDS011;55682;51.114;5.882;2023-07-31T08:19:23;2.75;;;2.75;;
68700;SDS011;55682;51.114;5.882;2023-07-31T08:21:48;2.60;;;2.60;;
68700;SDS011;55682;51.114;5.882;2023-07-31T08:24:14;2.71;;;2.71;;
68700;SDS011;55682;51.114;5.882;2023-07-31T08:26:39;2.84;;;2.84;;
68700;SDS011;55682;51.114;5.882;2023-07-31T08:29:05;2.86;;;2.86;;
68700;SDS011;55682;51.114;5.882;2023-07-31T08:31:31;2.75;;;2.75;;
68700;SDS011;55682;51.114;5.882;2023-07-31T08:33:57;2.85;;;2.85;;
68700;SDS011;55682;51.114;5.882;2023-07-31T08:36:22;2.80;;;2.80;;
68700;SDS011;55682;51.114;5.882;2023-07-31T08:38:48;2.89;;;2.89;;
68700;SDS011;55682;51.114;5.882;2023-07-31T08:41:15;2.84;;;2.83;;
68700;SDS011;55682;51.114;5.882;2023-07-31T08:43:43;2.69;;;2.67;;
68700;SDS011;55682;51.114;5.882;2023-07-31T08:46:14;2.95;;;2.94;;
68700;SDS011;55682;51.114;5.882;2023-07-31T08:48:43;2.74;;;2.73;;
68700;SDS011;55682;51.114;5.882;2023-07-31T08:51:10;3.12;;;3.12;;
68700;SDS011;55682;51.114;5.882;2023-07-31T08:53:36;2.87;;;2.86;;
68700;SDS011;55682;51.114;5.882;2023-07-31T08:56:02;2.78;;;2.76;;
68700;SDS011;55682;51.114;5.882;2023-07-31T08:58:30;2.80;;;2.78;;
68700;SDS011;55682;51.114;5.882;2023-07-31T09:00:58;2.80;;;2.80;;
68700;SDS011;55682;51.114;5.882;2023-07-31T09:03:26;3.11;;;3.11;;
68700;SDS011;55682;51.114;5.882;2023-07-31T09:05:53;3.24;;;3.24;;
68700;SDS011;55682;51.114;5.882;2023-07-31T09:08:21;3.08;;;3.07;;
68700;SDS011;55682;51.114;5.882;2023-07-31T09:10:47;3.04;;;3.04;;
68700;SDS011;55682;51.114;5.882;2023-07-31T09:13:16;2.88;;;2.88;;
68700;SDS011;55682;51.114;5.882;2023-07-31T09:15:43;2.31;;;2.30;;
68700;SDS011;55682;51.114;5.882;2023-07-31T09:18:10;2.66;;;2.64;;
68700;SDS011;55682;51.114;5.882;2023-07-31T09:20:36;2.69;;;2.68;;
68700;SDS011;55682;51.114;5.882;2023-07-31T09:25:36;2.39;;;2.39;;
68700;SDS011;55682;51.114;5.882;2023-07-31T09:28:04;2.48;;;2.48;;
68700;SDS011;55682;51.114;5.882;2023-07-31T09:30:46;2.39;;;2.39;;
68700;SDS011;55682;51.114;5.882;2023-07-31T09:33:14;2.56;;;2.56;;
68700;SDS011;55682;51.114;5.882;2023-07-31T09:35:41;2.37;;;2.37;;
68700;SDS011;55682;51.114;5.882;2023-07-31T09:38:07;2.29;;;2.29;;
68700;SDS011;55682;51.114;5.882;2023-07-31T09:40:36;2.31;;;2.31;;
68700;SDS011;55682;51.114;5.882;2023-07-31T09:43:04;2.36;;;2.36;;
68700;SDS011;55682;51.114;5.882;2023-07-31T09:45:38;2.29;;;2.29;;
68700;SDS011;55682;51.114;5.882;2023-07-31T09:50:36;2.41;;;2.41;;
68700;SDS011;55682;51.114;5.882;2023-07-31T09:53:06;2.31;;;2.31;;
68700;SDS011;55682;51.114;5.882;2023-07-31T09:55:33;2.37;;;2.37;;
68700;SDS011;55682;51.114;5.882;2023-07-31T09:58:02;2.12;;;2.12;;
68700;SDS011;55682;51.114;5.882;2023-07-31T10:00:30;2.13;;;2.13;;
68700;SDS011;55682;51.114;5.882;2023-07-31T10:03:01;2.04;;;2.04;;
68700;SDS011;55682;51.114;5.882;2023-07-31T10:05:34;2.18;;;2.18;;
68700;SDS011;55682;51.114;5.882;2023-07-31T10:08:01;2.11;;;2.11;;
68700;SDS011;55682;51.114;5.882;2023-07-31T10:10:29;1.78;;;1.78;;
68700;SDS011;55682;51.114;5.882;2023-07-31T10:12:56;1.95;;;1.95;;
68700;SDS011;55682;51.114;5.882;2023-07-31T10:15:23;1.75;;;1.75;;
68700;SDS011;55682;51.114;5.882;2023-07-31T10:17:50;1.66;;;1.66;;
68700;SDS011;55682;51.114;5.882;2023-07-31T10:20:19;1.48;;;1.48;;
68700;SDS011;55682;51.114;5.882;2023-07-31T10:22:46;1.71;;;1.71;;
68700;SDS011;55682;51.114;5.882;2023-07-31T10:25:13;1.56;;;1.56;;
68700;SDS011;55682;51.114;5.882;2023-07-31T10:27:40;1.73;;;1.72;;
68700;SDS011;55682;51.114;5.882;2023-07-31T10:30:08;1.67;;;1.66;;
68700;SDS011;55682;51.114;5.882;2023-07-31T10:32:38;1.68;;;1.67;;
68700;SDS011;55682;51.114;5.882;2023-07-31T10:35:07;1.74;;;1.74;;
68700;SDS011;55682;51.114;5.882;2023-07-31T10:37:38;1.70;;;1.70;;
68700;SDS011;55682;51.114;5.882;2023-07-31T10:42:48;1.57;;;1.57;;
68700;SDS011;55682;51.114;5.882;2023-07-31T10:45:24;1.70;;;1.70;;
68700;SDS011;55682;51.114;5.882;2023-07-31T10:50:31;1.54;;;1.54;;
68700;SDS011;55682;51.114;5.882;2023-07-31T10:53:01;1.53;;;1.53;;
68700;SDS011;55682;51.114;5.882;2023-07-31T10:55:28;1.75;;;1.75;;
68700;SDS011;55682;51.114;5.882;2023-07-31T10:57:55;1.84;;;1.84;;
68700;SDS011;55682;51.114;5.882;2023-07-31T11:00:27;1.60;;;1.60;;
68700;SDS011;55682;51.114;5.882;2023-07-31T11:03:04;1.63;;;1.63;;
68700;SDS011;55682;51.114;5.882;2023-07-31T11:05:46;1.70;;;1.70;;
68700;SDS011;55682;51.114;5.882;2023-07-31T11:08:22;1.83;;;1.83;;
68700;SDS011;55682;51.114;5.882;2023-07-31T11:10:51;1.80;;;1.80;;
68700;SDS011;55682;51.114;5.882;2023-07-31T11:13:49;2.10;;;2.10;;
68700;SDS011;55682;51.114;5.882;2023-07-31T11:16:22;1.64;;;1.64;;
68700;SDS011;55682;51.114;5.882;2023-07-31T11:18:49;1.92;;;1.92;;
68700;SDS011;55682;51.114;5.882;2023-07-31T11:21:17;1.90;;;1.90;;
68700;SDS011;55682;51.114;5.882;2023-07-31T11:23:56;1.80;;;1.80;;
68700;SDS011;55682;51.114;5.882;2023-07-31T11:26:23;1.70;;;1.70;;
68700;SDS011;55682;51.114;5.882;2023-07-31T11:28:50;1.46;;;1.46;;
68700;SDS011;55682;51.114;5.882;2023-07-31T11:31:17;1.72;;;1.72;;
68700;SDS011;55682;51.114;5.882;2023-07-31T11:33:43;1.73;;;1.73;;
68700;SDS011;55682;51.114;5.882;2023-07-31T11:36:16;2.09;;;2.09;;
68700;SDS011;55682;51.114;5.882;2023-07-31T11:38:43;2.24;;;2.24;;
68700;SDS011;55682;51.114;5.882;2023-07-31T11:41:08;1.94;;;1.93;;
68700;SDS011;55682;51.114;5.882;2023-07-31T11:43:34;2.18;;;2.18;;
68700;SDS011;55682;51.114;5.882;2023-07-31T11:46:02;1.96;;;1.96;;
68700;SDS011;55682;51.114;5.882;2023-07-31T11:48:29;2.02;;;2.02;;
68700;SDS011;55682;51.114;5.882;2023-07-31T11:50:59;2.50;;;2.50;;
68700;SDS011;55682;51.114;5.882;2023-07-31T11:53:28;2.81;;;2.81;;
68700;SDS011;55682;51.114;5.882;2023-07-31T11:55:59;2.56;;;2.56;;
68700;SDS011;55682;51.114;5.882;2023-07-31T11:58:30;2.63;;;2.63;;
68700;SDS011;55682;51.114;5.882;2023-07-31T12:00:57;2.51;;;2.50;;
68700;SDS011;55682;51.114;5.882;2023-07-31T12:03:24;2.38;;;2.38;;
68700;SDS011;55682;51.114;5.882;2023-07-31T12:05:52;2.84;;;2.84;;
68700;SDS011;55682;51.114;5.882;2023-07-31T12:08:20;2.87;;;2.87;;
68700;SDS011;55682;51.114;5.882;2023-07-31T12:10:47;2.63;;;2.63;;
68700;SDS011;55682;51.114;5.882;2023-07-31T12:13:23;2.87;;;2.87;;
68700;SDS011;55682;51.114;5.882;2023-07-31T12:15:54;3.14;;;3.14;;
68700;SDS011;55682;51.114;5.882;2023-07-31T12:18:23;2.88;;;2.88;;
68700;SDS011;55682;51.114;5.882;2023-07-31T12:20:56;3.03;;;3.03;;
68700;SDS011;55682;51.114;5.882;2023-07-31T12:23:27;2.88;;;2.88;;
68700;SDS011;55682;51.114;5.882;2023-07-31T12:26:04;3.52;;;3.52;;
68700;SDS011;55682;51.114;5.882;2023-07-31T12:28:37;3.22;;;3.22;;
68700;SDS011;55682;51.114;5.882;2023-07-31T12:31:04;3.57;;;3.57;;
68700;SDS011;55682;51.114;5.882;2023-07-31T12:33:31;2.96;;;2.96;;
68700;SDS011;55682;51.114;5.882;2023-07-31T12:36:00;3.06;;;3.06;;
68700;SDS011;55682;51.114;5.882;2023-07-31T12:38:28;2.99;;;2.99;;
68700;SDS011;55682;51.114;5.882;2023-07-31T12:40:54;3.54;;;3.54;;
68700;SDS011;55682;51.114;5.882;2023-07-31T12:43:19;3.09;;;3.09;;
68700;SDS011;55682;51.114;5.882;2023-07-31T12:45:45;2.98;;;2.98;;
68700;SDS011;55682;51.114;5.882;2023-07-31T12:48:12;3.24;;;3.24;;
68700;SDS011;55682;51.114;5.882;2023-07-31T12:50:39;3.19;;;3.18;;
68700;SDS011;55682;51.114;5.882;2023-07-31T12:53:04;2.67;;;2.66;;
68700;SDS011;55682;51.114;5.882;2023-07-31T12:55:31;2.71;;;2.71;;
68700;SDS011;55682;51.114;5.882;2023-07-31T12:58:00;3.26;;;3.26;;
68700;SDS011;55682;51.114;5.882;2023-07-31T13:00:26;3.11;;;3.11;;
68700;SDS011;55682;51.114;5.882;2023-07-31T13:02:52;2.90;;;2.90;;
68700;SDS011;55682;51.114;5.882;2023-07-31T13:05:18;3.10;;;3.08;;
68700;SDS011;55682;51.114;5.882;2023-07-31T13:07:45;3.29;;;3.28;;
68700;SDS011;55682;51.114;5.882;2023-07-31T13:10:14;3.21;;;3.19;;
68700;SDS011;55682;51.114;5.882;2023-07-31T13:12:40;3.25;;;3.21;;
68700;SDS011;55682;51.114;5.882;2023-07-31T13:15:06;3.08;;;3.07;;
68700;SDS011;55682;51.114;5.882;2023-07-31T13:17:32;2.86;;;2.86;;
68700;SDS011;55682;51.114;5.882;2023-07-31T13:19:58;2.67;;;2.67;;
68700;SDS011;55682;51.114;5.882;2023-07-31T13:22:24;2.40;;;2.40;;
68700;SDS011;55682;51.114;5.882;2023-07-31T13:24:51;2.92;;;2.92;;
68700;SDS011;55682;51.114;5.882;2023-07-31T13:27:16;3.27;;;3.27;;
68700;SDS011;55682;51.114;5.882;2023-07-31T13:29:44;2.87;;;2.87;;
68700;SDS011;55682;51.114;5.882;2023-07-31T13:32:10;2.97;;;2.97;;
68700;SDS011;55682;51.114;5.882;2023-07-31T13:34:36;2.98;;;2.98;;
68700;SDS011;55682;51.114;5.882;2023-07-31T13:37:02;2.89;;;2.89;;
68700;SDS011;55682;51.114;5.882;2023-07-31T13:39:27;2.86;;;2.86;;
68700;SDS011;55682;51.114;5.882;2023-07-31T13:41:53;3.04;;;3.04;;
68700;SDS011;55682;51.114;5.882;2023-07-31T13:44:19;2.86;;;2.86;;
68700;SDS011;55682;51.114;5.882;2023-07-31T13:46:44;3.21;;;3.21;;
68700;SDS011;55682;51.114;5.882;2023-07-31T13:49:10;3.02;;;3.02;;
68700;SDS011;55682;51.114;5.882;2023-07-31T13:51:36;3.13;;;3.12;;
68700;SDS011;55682;51.114;5.882;2023-07-31T13:54:03;2.96;;;2.95;;
68700;SDS011;55682;51.114;5.882;2023-07-31T13:56:28;3.28;;;3.27;;
68700;SDS011;55682;51.114;5.882;2023-07-31T13:58:54;3.03;;;3.03;;
68700;SDS011;55682;51.114;5.882;2023-07-31T14:01:19;3.05;;;3.05;;
68700;SDS011;55682;51.114;5.882;2023-07-31T14:03:45;3.11;;;3.11;;
68700;SDS011;55682;51.114;5.882;2023-07-31T14:06:11;3.43;;;3.43;;
68700;SDS011;55682;51.114;5.882;2023-07-31T14:08:36;3.38;;;3.38;;
68700;SDS011;55682;51.114;5.882;2023-07-31T14:11:02;3.62;;;3.62;;
68700;SDS011;55682;51.114;5.882;2023-07-31T14:13:27;3.22;;;3.22;;
68700;SDS011;55682;51.114;5.882;2023-07-31T14:15:53;3.39;;;3.39;;
68700;SDS011;55682;51.114;5.882;2023-07-31T14:18:19;3.62;;;3.62;;
68700;SDS011;55682;51.114;5.882;2023-07-31T14:20:44;3.50;;;3.50;;
68700;SDS011;55682;51.114;5.882;2023-07-31T14:23:10;3.03;;;3.03;;
68700;SDS011;55682;51.114;5.882;2023-07-31T14:25:36;2.93;;;2.93;;
68700;SDS011;55682;51.114;5.882;2023-07-31T14:28:02;3.08;;;3.08;;
68700;SDS011;55682;51.114;5.882;2023-07-31T14:30:27;3.22;;;3.22;;
68700;SDS011;55682;51.114;5.882;2023-07-31T14:32:53;3.49;;;3.49;;
68700;SDS011;55682;51.114;5.882;2023-07-31T14:35:19;3.24;;;3.24;;
68700;SDS011;55682;51.114;5.882;2023-07-31T14:37:44;3.54;;;3.54;;
68700;SDS011;55682;51.114;5.882;2023-07-31T14:40:11;3.72;;;3.71;;
68700;SDS011;55682;51.114;5.882;2023-07-31T14:42:38;3.43;;;3.41;;
68700;SDS011;55682;51.114;5.882;2023-07-31T14:45:04;3.40;;;3.40;;
68700;SDS011;55682;51.114;5.882;2023-07-31T14:47:31;3.44;;;3.44;;
68700;SDS011;55682;51.114;5.882;2023-07-31T14:49:57;3.69;;;3.69;;
68700;SDS011;55682;51.114;5.882;2023-07-31T14:52:26;3.28;;;3.28;;
68700;SDS011;55682;51.114;5.882;2023-07-31T14:54:52;3.23;;;3.22;;
68700;SDS011;55682;51.114;5.882;2023-07-31T14:57:17;3.10;;;3.09;;
68700;SDS011;55682;51.114;5.882;2023-07-31T14:59:43;2.85;;;2.84;;
68700;SDS011;55682;51.114;5.882;2023-07-31T15:02:10;2.94;;;2.94;;